createdAt,value
2019-04-28T00:01:24.779Z,0.70
2019-04-28T00:03:52.999Z,1.00
2019-04-28T00:06:21.266Z,0.60
2019-04-28T00:08:49.574Z,0.60
2019-04-28T00:11:17.867Z,0.93
2019-04-28T00:13:46.092Z,0.80
2019-04-28T00:16:14.411Z,0.67
2019-04-28T00:18:42.633Z,0.60
2019-04-28T00:21:15.173Z,0.80
2019-04-28T00:23:45.063Z,0.80
2019-04-28T00:26:31.166Z,0.80
2019-04-28T00:29:01.179Z,0.63
2019-04-28T00:31:31.151Z,0.70
2019-04-28T00:34:01.240Z,0.90
2019-04-28T00:36:31.135Z,0.90
2019-04-28T00:39:01.379Z,0.63
2019-04-28T00:41:30.931Z,0.93
2019-04-28T00:43:59.309Z,0.70
2019-04-28T00:46:31.041Z,0.70
2019-04-28T00:48:59.232Z,1.00
2019-04-28T00:51:27.457Z,1.10
2019-04-28T00:53:55.789Z,1.00
2019-04-28T00:56:24.017Z,0.80
2019-04-28T00:58:53.166Z,0.57
2019-04-28T01:01:38.318Z,0.90
2019-04-28T01:04:06.566Z,1.00
2019-04-28T01:06:34.789Z,0.63
2019-04-28T01:09:03.840Z,0.67
2019-04-28T01:11:32.185Z,1.10
2019-04-28T01:14:01.765Z,0.90
2019-04-28T01:16:34.918Z,0.90
2019-04-28T01:19:10.645Z,1.00
2019-04-28T01:21:57.041Z,0.90
2019-04-28T01:24:25.408Z,0.77
2019-04-28T01:26:55.522Z,0.93
2019-04-28T01:29:23.787Z,0.55
2019-04-28T01:32:10.396Z,0.93
2019-04-28T01:34:40.018Z,0.80
2019-04-28T01:37:09.717Z,0.87
2019-04-28T01:39:41.011Z,0.80
2019-04-28T01:42:08.030Z,0.60
2019-04-28T01:44:36.280Z,0.90
2019-04-28T01:47:04.509Z,1.00
2019-04-28T01:49:32.767Z,1.00
2019-04-28T01:52:01.268Z,0.87
2019-04-28T01:54:30.214Z,0.87
2019-04-28T01:57:00.963Z,1.00
2019-04-28T01:59:30.266Z,0.80
2019-04-28T02:02:00.057Z,0.90
2019-04-28T02:04:30.085Z,0.67
2019-04-28T02:06:59.878Z,0.70
2019-04-28T02:09:29.674Z,0.67
2019-04-28T02:11:58.143Z,0.73
2019-04-28T02:14:26.387Z,0.77
2019-04-28T02:16:54.622Z,0.97
2019-04-28T02:19:22.889Z,0.70
2019-04-28T02:21:52.830Z,0.60
2019-04-28T02:24:31.814Z,0.90
2019-04-28T02:27:00.797Z,0.90
2019-04-28T02:29:30.125Z,0.90
2019-04-28T02:32:01.739Z,0.87
2019-04-28T02:34:31.070Z,0.98
2019-04-28T02:37:01.499Z,0.90
2019-04-28T02:39:31.213Z,0.73
2019-04-28T02:42:01.497Z,0.90
2019-04-28T02:44:33.453Z,1.20
2019-04-28T02:47:00.795Z,0.80
2019-04-28T02:49:34.155Z,1.00
2019-04-28T02:52:04.086Z,1.00
2019-04-28T02:54:32.389Z,0.83
2019-04-28T02:57:01.253Z,0.90
2019-04-28T02:59:30.425Z,0.90
2019-04-28T03:02:00.711Z,0.80
2019-04-28T03:04:30.755Z,1.17
2019-04-28T03:07:01.319Z,0.70
2019-04-28T03:09:30.560Z,0.80
2019-04-28T03:12:01.493Z,1.00
2019-04-28T03:14:30.462Z,0.90
2019-04-28T03:17:00.849Z,0.90
2019-04-28T03:19:33.790Z,0.80
2019-04-28T03:22:01.297Z,1.10
2019-04-28T03:24:31.545Z,1.13
2019-04-28T03:27:20.482Z,0.77
2019-04-28T03:29:53.216Z,0.70
2019-04-28T03:32:40.026Z,0.80
2019-04-28T03:34:55.743Z,1.00
2019-04-28T03:37:24.411Z,1.00
2019-04-28T03:39:52.926Z,0.80
2019-04-28T03:42:21.918Z,0.80
2019-04-28T03:44:51.078Z,0.80
2019-04-28T03:47:21.014Z,0.80
2019-04-28T03:49:50.468Z,1.03
2019-04-28T03:52:21.291Z,0.90
2019-04-28T03:54:50.904Z,0.83
2019-04-28T03:57:21.619Z,0.98
2019-04-28T03:59:51.229Z,0.50
2019-04-28T04:02:22.960Z,0.90
2019-04-28T04:04:52.130Z,0.97
2019-04-28T04:07:21.567Z,0.83
2019-04-28T04:09:51.519Z,0.73
2019-04-28T04:12:21.666Z,0.90
2019-04-28T04:14:51.550Z,0.80
2019-04-28T04:17:21.437Z,0.77
2019-04-28T04:19:50.393Z,0.87
2019-04-28T04:22:21.182Z,1.07
2019-04-28T04:24:50.251Z,0.87
2019-04-28T04:27:20.927Z,0.90
2019-04-28T04:29:50.813Z,0.77
2019-04-28T04:32:24.171Z,0.83
2019-04-28T04:34:50.607Z,0.70
2019-04-28T04:37:20.543Z,1.10
2019-04-28T04:39:51.277Z,0.97
2019-04-28T04:42:20.424Z,0.90
2019-04-28T04:44:50.165Z,0.93
2019-04-28T04:47:21.086Z,0.97
2019-04-28T04:49:50.494Z,1.17
2019-04-28T04:52:20.318Z,1.20
2019-04-28T04:54:51.034Z,1.10
2019-04-28T04:57:20.608Z,1.27
2019-04-28T04:59:50.024Z,1.13
2019-04-28T05:02:33.151Z,1.00
2019-04-28T05:05:03.310Z,0.80
2019-04-28T05:07:31.537Z,1.10
2019-04-28T05:09:59.797Z,1.20
2019-04-28T05:12:28.028Z,0.90
2019-04-28T05:14:56.263Z,1.20
2019-04-28T05:17:24.505Z,0.97
2019-04-28T05:19:52.757Z,0.90
2019-04-28T05:22:22.636Z,1.10
2019-04-28T05:24:55.017Z,1.90
2019-04-28T05:27:25.587Z,1.10
2019-04-28T05:29:56.889Z,1.10
2019-04-28T05:32:23.177Z,1.00
2019-04-28T05:34:52.944Z,1.50
2019-04-28T05:37:21.323Z,1.10
2019-04-28T05:39:50.018Z,1.20
2019-04-28T05:42:19.927Z,1.27
2019-04-28T05:44:49.623Z,1.00
2019-04-28T05:47:18.000Z,1.13
2019-04-28T05:50:00.190Z,1.23
2019-04-28T05:52:40.355Z,1.30
2019-04-28T05:55:10.373Z,1.07
2019-04-28T05:57:42.877Z,1.10
2019-04-28T06:00:29.677Z,1.00
2019-04-28T06:03:02.618Z,1.33
2019-04-28T06:05:31.953Z,1.20
2019-04-28T06:08:04.725Z,1.37
2019-04-28T06:10:32.966Z,2.10
2019-04-28T06:13:01.201Z,2.00
2019-04-28T06:15:29.591Z,2.17
2019-04-28T06:17:57.900Z,1.53
2019-04-28T06:20:26.156Z,1.50
2019-04-28T06:22:54.404Z,0.90
2019-04-28T06:25:22.642Z,1.17
2019-04-28T06:27:50.877Z,0.80
2019-04-28T06:30:19.381Z,0.90
2019-04-28T06:32:47.626Z,1.60
2019-04-28T06:35:15.860Z,2.20
2019-04-28T06:37:44.176Z,1.00
2019-04-28T06:40:31.877Z,1.10
2019-04-28T06:43:00.141Z,0.77
2019-04-28T06:45:28.381Z,1.00
2019-04-28T06:47:56.625Z,1.00
2019-04-28T06:50:24.893Z,0.97
2019-04-28T06:52:53.144Z,0.73
2019-04-28T06:55:23.595Z,1.23
2019-04-28T06:57:53.805Z,0.78
2019-04-28T07:00:24.163Z,0.93
2019-04-28T07:02:52.511Z,0.88
2019-04-28T07:05:22.732Z,1.20
2019-04-28T07:07:50.968Z,1.00
2019-04-28T07:10:19.202Z,0.70
2019-04-28T07:12:47.457Z,0.62
2019-04-28T07:15:15.781Z,0.72
2019-04-28T07:17:44.105Z,0.90
2019-04-28T07:20:25.938Z,0.80
2019-04-28T07:22:54.448Z,0.60
2019-04-28T07:25:22.674Z,0.80
2019-04-28T07:27:51.010Z,0.97
2019-04-28T07:30:19.308Z,0.80
2019-04-28T07:32:47.564Z,0.63
2019-04-28T07:35:15.798Z,0.90
2019-04-28T07:37:44.091Z,1.10
2019-04-28T07:40:12.385Z,0.83
2019-04-28T07:42:40.669Z,0.73
2019-04-28T07:45:08.896Z,1.00
2019-04-28T07:47:37.157Z,0.70
2019-04-28T07:50:05.951Z,1.00
2019-04-28T07:52:54.177Z,1.07
2019-04-28T07:55:22.502Z,1.10
2019-04-28T07:57:50.807Z,1.13
2019-04-28T08:00:26.529Z,1.30
2019-04-28T08:02:54.779Z,0.90
2019-04-28T08:05:23.025Z,1.27
2019-04-28T08:07:54.390Z,1.17
2019-04-28T08:10:22.648Z,1.63
2019-04-28T08:12:50.921Z,1.00
2019-04-28T08:15:19.173Z,1.25
2019-04-28T08:17:47.421Z,0.80
2019-04-28T08:20:15.699Z,0.90
2019-04-28T08:22:43.950Z,0.87
2019-04-28T08:25:12.200Z,0.60
2019-04-28T08:27:40.452Z,1.15
2019-04-28T08:30:08.728Z,1.10
2019-04-28T08:32:50.781Z,0.97
2019-04-28T08:35:20.087Z,0.97
2019-04-28T08:37:48.336Z,1.20
2019-04-28T08:40:16.593Z,1.50
2019-04-28T08:42:44.854Z,1.40
2019-04-28T08:45:13.200Z,1.20
2019-04-28T08:47:41.454Z,1.20
2019-04-28T08:50:09.724Z,1.50
2019-04-28T08:52:37.955Z,1.40
2019-04-28T08:55:06.297Z,1.35
2019-04-28T08:57:34.549Z,1.07
2019-04-28T09:00:04.214Z,1.27
2019-04-28T09:02:32.439Z,1.10
2019-04-28T09:05:00.713Z,1.33
2019-04-28T09:07:28.982Z,1.40
2019-04-28T09:09:57.247Z,1.60
2019-04-28T09:12:25.509Z,1.40
2019-04-28T09:14:53.745Z,1.20
2019-04-28T09:17:22.009Z,1.35
2019-04-28T09:19:50.277Z,1.05
2019-04-28T09:22:18.578Z,1.00
2019-04-28T09:24:46.814Z,0.80
2019-04-28T09:27:15.218Z,1.00
2019-04-28T09:29:43.457Z,0.65
2019-04-28T09:32:11.718Z,1.20
2019-04-28T09:34:39.941Z,1.05
2019-04-28T09:37:08.260Z,1.05
2019-04-28T09:39:44.065Z,1.22
2019-04-28T09:42:20.177Z,0.72
2019-04-28T09:44:48.410Z,1.30
2019-04-28T09:47:16.707Z,0.88
2019-04-28T09:49:44.968Z,0.90
2019-04-28T09:52:13.197Z,0.85
2019-04-28T09:54:41.432Z,1.10
2019-04-28T09:57:09.696Z,1.00
2019-04-28T09:59:37.927Z,1.20
2019-04-28T10:02:06.172Z,1.10
2019-04-28T10:04:41.365Z,1.35
2019-04-28T10:07:04.371Z,0.85
2019-04-28T10:09:32.655Z,0.80
2019-04-28T10:12:00.914Z,1.05
2019-04-28T10:14:29.138Z,1.40
2019-04-28T10:16:57.390Z,1.00
2019-04-28T10:19:25.655Z,0.88
2019-04-28T10:21:53.867Z,0.85
2019-04-28T10:24:22.146Z,1.20
2019-04-28T10:26:50.381Z,0.80
2019-04-28T10:29:18.660Z,1.00
2019-04-28T10:31:46.889Z,0.90
2019-04-28T10:34:15.159Z,0.98
2019-04-28T10:36:43.401Z,1.15
2019-04-28T10:39:29.520Z,1.17
2019-04-28T10:41:57.764Z,1.10
2019-04-28T10:44:27.205Z,0.88
2019-04-28T10:46:55.444Z,1.00
2019-04-28T10:49:23.727Z,0.85
2019-04-28T10:51:59.084Z,1.02
2019-04-28T10:54:21.954Z,0.80
2019-04-28T10:56:50.200Z,0.90
2019-04-28T10:59:18.467Z,1.00
2019-04-28T11:01:46.845Z,0.93
2019-04-28T11:04:33.201Z,0.80
2019-04-28T11:07:01.447Z,0.70
2019-04-28T11:09:46.296Z,0.95
2019-04-28T11:13:01.153Z,0.90
2019-04-28T11:15:36.525Z,1.07
2019-04-28T11:18:06.870Z,0.70
2019-04-28T11:20:35.146Z,1.00
2019-04-28T11:23:03.558Z,0.75
2019-04-28T11:25:31.853Z,0.80
2019-04-28T11:28:00.092Z,0.70
2019-04-28T11:30:29.957Z,0.88
2019-04-28T11:33:02.728Z,0.80
2019-04-28T11:35:32.853Z,0.95
2019-04-28T11:38:01.104Z,0.80
2019-04-28T11:40:29.570Z,1.17
2019-04-28T11:42:57.813Z,1.10
2019-04-28T11:45:26.956Z,1.10
2019-04-28T11:47:55.204Z,1.00
2019-04-28T11:50:23.462Z,0.70
2019-04-28T11:52:51.692Z,0.78
2019-04-28T11:55:19.958Z,0.98
2019-04-28T11:57:48.185Z,0.53
2019-04-28T12:00:20.897Z,0.60
2019-04-28T12:02:49.146Z,0.75
2019-04-28T12:05:17.564Z,0.57
2019-04-28T12:07:45.843Z,0.50
2019-04-28T12:10:15.727Z,1.00
2019-04-28T12:12:45.626Z,0.75
2019-04-28T12:15:32.306Z,0.78
2019-04-28T12:18:04.905Z,0.90
2019-04-28T12:20:33.308Z,1.00
2019-04-28T12:23:01.575Z,0.57
2019-04-28T12:25:29.823Z,0.70
2019-04-28T12:27:58.111Z,0.85
2019-04-28T12:30:26.422Z,0.55
2019-04-28T12:32:54.675Z,0.30
2019-04-28T12:35:22.918Z,0.80
2019-04-28T12:37:51.193Z,0.72
2019-04-28T12:40:22.317Z,0.90
2019-04-28T12:42:49.426Z,1.00
2019-04-28T12:45:17.661Z,0.50
2019-04-28T12:47:45.921Z,0.65
2019-04-28T12:50:18.695Z,0.57
2019-04-28T12:52:46.950Z,0.68
2019-04-28T12:55:15.281Z,0.68
2019-04-28T12:57:43.562Z,0.60
2019-04-28T13:00:16.121Z,0.50
2019-04-28T13:03:02.261Z,0.67
2019-04-28T13:05:32.143Z,0.80
2019-04-28T13:08:00.394Z,0.80
2019-04-28T13:10:28.637Z,0.60
2019-04-28T13:12:56.894Z,0.60
2019-04-28T13:15:25.141Z,0.50
2019-04-28T13:17:53.478Z,0.70
2019-04-28T13:20:21.697Z,0.88
2019-04-28T13:22:49.992Z,0.60
2019-04-28T13:25:18.291Z,0.55
2019-04-28T13:27:46.537Z,0.45
2019-04-28T13:30:14.785Z,0.65
2019-04-28T13:32:43.037Z,0.62
2019-04-28T13:35:11.326Z,0.65
2019-04-28T13:37:39.702Z,0.70
2019-04-28T13:40:09.605Z,0.85
2019-04-28T13:42:37.882Z,0.90
2019-04-28T13:45:09.999Z,0.60
2019-04-28T13:47:38.234Z,0.50
2019-04-28T13:50:20.847Z,0.68
2019-04-28T13:52:49.125Z,0.60
2019-04-28T13:55:19.029Z,0.70
2019-04-28T13:57:47.267Z,0.60
2019-04-28T14:00:17.172Z,0.68
2019-04-28T14:02:49.607Z,0.70
2019-04-28T14:05:22.196Z,0.70
2019-04-28T14:07:50.500Z,0.60
2019-04-28T14:10:18.764Z,0.93
2019-04-28T14:12:46.999Z,0.70
2019-04-28T14:15:15.388Z,0.70
2019-04-28T14:17:43.642Z,0.65
2019-04-28T14:20:11.930Z,0.57
2019-04-28T14:22:40.215Z,0.53
2019-04-28T14:25:08.635Z,0.50
2019-04-28T14:27:36.945Z,0.50
2019-04-28T14:30:08.224Z,0.40
2019-04-28T14:32:36.505Z,0.60
2019-04-28T14:35:07.845Z,0.60
2019-04-28T14:37:36.133Z,0.62
2019-04-28T14:40:05.993Z,0.70
2019-04-28T14:42:34.242Z,1.12
2019-04-28T14:45:02.474Z,0.50
2019-04-28T14:47:30.897Z,0.78
2019-04-28T14:49:59.188Z,0.50
2019-04-28T14:52:29.293Z,0.50
2019-04-28T14:54:57.564Z,0.68
2019-04-28T14:57:25.901Z,0.72
2019-04-28T14:59:54.152Z,0.50
2019-04-28T15:02:24.033Z,0.45
2019-04-28T15:05:10.133Z,0.80
2019-04-28T15:07:56.527Z,0.50
2019-04-28T15:10:41.713Z,0.45
2019-04-28T15:13:09.948Z,0.55
2019-04-28T15:15:38.328Z,0.60
2019-04-28T15:18:06.610Z,0.40
2019-04-28T15:20:34.857Z,0.88
2019-04-28T15:23:03.236Z,0.50
2019-04-28T15:25:31.483Z,0.50
2019-04-28T15:27:59.736Z,0.57
2019-04-28T15:30:27.960Z,0.50
2019-04-28T15:32:56.298Z,0.42
2019-04-28T15:35:24.553Z,0.60
2019-04-28T15:37:52.843Z,0.47
2019-04-28T15:40:22.717Z,0.57
2019-04-28T15:42:50.990Z,0.60
2019-04-28T15:45:19.254Z,0.50
2019-04-28T15:47:47.534Z,0.80
2019-04-28T15:50:15.762Z,0.47
2019-04-28T15:52:44.047Z,0.50
2019-04-28T15:58:03.003Z,0.47
2019-04-28T16:00:31.265Z,0.50
2019-04-28T16:02:59.559Z,0.30
2019-04-28T16:05:27.827Z,0.65
2019-04-28T16:07:56.130Z,0.75
2019-04-28T16:10:24.384Z,0.60
2019-04-28T16:12:53.130Z,0.42
2019-04-28T16:15:21.417Z,0.60
2019-04-28T16:17:49.699Z,0.53
2019-04-28T16:20:18.002Z,0.60
2019-04-28T16:22:46.267Z,0.68
2019-04-28T16:25:14.525Z,0.70
2019-04-28T16:27:44.503Z,0.70
2019-04-28T16:30:13.009Z,0.67
2019-04-28T16:32:41.572Z,0.62
2019-04-28T16:35:09.845Z,0.60
2019-04-28T16:37:39.189Z,0.47
2019-04-28T16:40:09.646Z,0.33
2019-04-28T16:42:37.903Z,0.57
2019-04-28T16:45:06.337Z,0.33
2019-04-28T16:47:34.597Z,0.65
2019-04-28T16:50:03.524Z,0.53
2019-04-28T16:52:31.770Z,0.50
2019-04-28T16:55:16.665Z,0.75
2019-04-28T16:58:02.807Z,0.72
2019-04-28T17:00:49.081Z,0.75
2019-04-28T17:03:17.493Z,0.60
2019-04-28T17:05:45.773Z,0.70
2019-04-28T17:08:14.028Z,0.60
2019-04-28T17:10:42.285Z,0.40
2019-04-28T17:13:10.536Z,0.57
2019-04-28T17:15:38.816Z,1.10
2019-04-28T17:18:07.059Z,0.60
2019-04-28T17:20:35.337Z,0.80
2019-04-28T17:23:03.591Z,0.60
2019-04-28T17:25:51.282Z,0.60
2019-04-28T17:28:19.525Z,0.70
2019-04-28T17:30:47.797Z,0.80
2019-04-28T17:33:16.033Z,0.62
2019-04-28T17:35:44.322Z,0.68
2019-04-28T17:38:12.565Z,0.70
2019-04-28T17:40:40.840Z,0.60
2019-04-28T17:43:09.082Z,0.80
2019-04-28T17:45:37.364Z,0.88
2019-04-28T17:48:07.318Z,0.70
2019-04-28T17:50:35.965Z,0.88
2019-04-28T17:53:04.465Z,0.60
2019-04-28T17:55:32.732Z,0.88
2019-04-28T17:58:01.005Z,1.30
2019-04-28T18:00:33.890Z,1.55
2019-04-28T18:03:09.550Z,0.90
2019-04-28T18:05:39.448Z,0.50
2019-04-28T18:08:20.422Z,0.70
2019-04-28T18:10:37.665Z,0.60
2019-04-28T18:13:06.006Z,0.60
2019-04-28T18:15:41.693Z,0.40
2019-04-28T18:18:14.366Z,0.40
2019-04-28T18:20:42.647Z,0.68
2019-04-28T18:23:10.943Z,0.50
2019-04-28T18:25:39.237Z,0.50
2019-04-28T18:28:07.501Z,0.60
2019-04-28T18:30:37.365Z,0.40
2019-04-28T18:33:07.279Z,0.60
2019-04-28T18:35:37.165Z,0.37
2019-04-28T18:38:07.065Z,0.47
2019-04-28T18:40:43.164Z,0.62
2019-04-28T18:43:15.751Z,0.40
2019-04-28T18:45:44.022Z,0.53
2019-04-28T18:48:12.280Z,0.53
2019-04-28T18:50:40.523Z,0.70
2019-04-28T18:53:08.827Z,0.50
2019-04-28T18:55:37.125Z,0.62
2019-04-28T18:58:05.396Z,0.65
2019-04-28T19:00:35.277Z,0.55
2019-04-28T19:03:03.546Z,0.40
2019-04-28T19:05:33.418Z,0.50
2019-04-28T19:08:06.342Z,0.50
2019-04-28T19:10:36.217Z,0.62
2019-04-28T19:13:22.347Z,0.80
2019-04-28T19:15:58.271Z,0.72
2019-04-28T19:18:30.965Z,0.90
2019-04-28T19:20:59.288Z,0.68
2019-04-28T19:23:27.527Z,0.62
2019-04-28T19:25:55.844Z,0.55
2019-04-28T19:28:24.089Z,0.42
2019-04-28T19:30:52.332Z,0.50
2019-04-28T19:33:20.604Z,0.60
2019-04-28T19:35:48.844Z,0.80
2019-04-28T19:38:17.082Z,0.65
2019-04-28T19:40:45.335Z,0.62
2019-04-28T19:43:13.581Z,0.97
2019-04-28T19:45:43.415Z,0.50
2019-04-28T19:48:11.646Z,0.50
2019-04-28T19:50:39.906Z,0.80
2019-04-28T19:53:08.164Z,0.90
2019-04-28T19:55:38.092Z,0.67
2019-04-28T19:58:07.975Z,0.90
2019-04-28T20:00:40.725Z,0.70
2019-04-28T20:03:08.989Z,0.80
2019-04-28T20:05:37.234Z,0.73
2019-04-28T20:08:05.467Z,0.60
2019-04-28T20:10:33.735Z,0.63
2019-04-28T20:13:01.992Z,1.03
2019-04-28T20:15:30.338Z,1.00
2019-04-28T20:17:58.702Z,1.10
2019-04-28T20:20:27.022Z,0.63
2019-04-28T20:22:55.263Z,0.60
2019-04-28T20:25:23.528Z,0.70
2019-04-28T20:27:51.797Z,0.70
2019-04-28T20:30:20.041Z,0.67
2019-04-28T20:32:48.350Z,0.83
2019-04-28T20:35:18.239Z,0.87
2019-04-28T20:37:57.346Z,0.90
2019-04-28T20:40:32.946Z,0.70
2019-04-28T20:43:02.937Z,0.80
2019-04-28T20:45:31.169Z,0.70
2019-04-28T20:47:59.438Z,0.73
2019-04-28T20:50:27.697Z,1.00
2019-04-28T20:52:55.959Z,0.67
2019-04-28T20:55:24.198Z,0.73
2019-04-28T20:57:52.468Z,0.78
2019-04-28T21:00:20.725Z,0.78
2019-04-28T21:02:48.982Z,0.60
2019-04-28T21:05:17.226Z,0.90
2019-04-28T21:07:45.491Z,0.80
2019-04-28T21:10:13.733Z,0.70
2019-04-28T21:12:42.060Z,1.23
2019-04-28T21:15:10.403Z,0.70
2019-04-28T21:17:38.740Z,0.70
2019-04-28T21:20:06.986Z,0.60
2019-04-28T21:22:35.247Z,0.83
2019-04-28T21:25:06.717Z,0.63
2019-04-28T21:27:34.929Z,0.50
2019-04-28T21:30:03.671Z,0.50
2019-04-28T21:32:31.992Z,0.60
2019-04-28T21:35:00.242Z,0.80
2019-04-28T21:37:28.557Z,0.80
2019-04-28T21:39:56.809Z,0.63
2019-04-28T21:42:29.772Z,0.70
2019-04-28T21:45:11.640Z,0.80
2019-04-28T21:47:41.175Z,0.67
2019-04-28T21:50:09.409Z,0.80
2019-04-28T21:52:37.656Z,1.00
2019-04-28T21:55:06.664Z,1.00
2019-04-28T21:57:34.910Z,1.00
2019-04-28T22:00:05.143Z,0.70
2019-04-28T22:02:33.357Z,0.95
2019-04-28T22:05:01.660Z,0.70
2019-04-28T22:07:32.652Z,0.60
2019-04-28T22:12:28.476Z,0.83
2019-04-28T22:14:56.756Z,0.83
2019-04-28T22:17:25.005Z,0.60
2019-04-28T22:19:53.296Z,0.70
2019-04-28T22:22:21.577Z,0.87
2019-04-28T22:24:51.469Z,0.60
2019-04-28T22:27:21.367Z,1.07
2019-04-28T22:29:49.619Z,0.60
2019-04-28T22:32:17.863Z,0.70
2019-04-28T22:34:46.140Z,0.50
2019-04-28T22:37:14.366Z,0.77
2019-04-28T22:39:42.615Z,0.30
2019-04-28T22:42:10.855Z,0.90
2019-04-28T22:44:39.107Z,0.70
2019-04-28T22:47:07.372Z,0.50
2019-04-28T22:49:35.654Z,1.43
2019-04-28T22:52:03.877Z,0.50
2019-04-28T22:54:33.804Z,0.70
2019-04-28T22:57:03.765Z,0.60
2019-04-28T22:59:39.771Z,1.00
2019-04-28T23:02:09.655Z,0.93
2019-04-28T23:04:39.546Z,0.67
2019-04-28T23:07:07.849Z,0.70
2019-04-28T23:09:36.104Z,0.70
2019-04-28T23:12:04.520Z,0.73
2019-04-28T23:14:32.823Z,0.50
2019-04-28T23:17:01.065Z,0.63
2019-04-28T23:19:31.008Z,0.90
2019-04-28T23:22:00.896Z,0.80
2019-04-28T23:24:29.187Z,0.90
2019-04-28T23:26:57.476Z,0.80
2019-04-28T23:29:25.767Z,0.70
2019-04-28T23:31:54.049Z,0.60
2019-04-28T23:34:22.302Z,0.60
2019-04-28T23:36:50.551Z,0.70
2019-04-28T23:39:18.803Z,0.70
2019-04-28T23:41:54.504Z,0.70
2019-04-28T23:44:22.733Z,0.70
2019-04-28T23:47:01.558Z,0.80
2019-04-28T23:49:29.934Z,0.60
2019-04-28T23:52:02.837Z,0.57
2019-04-28T23:54:31.085Z,0.70
2019-04-28T23:56:59.294Z,0.60
2019-04-28T23:59:27.567Z,0.73
